Guantanamo Bay NAS, Cuba
Current Conditions -  °F | °C
As of 8:56 AM on Thursday 30 Oct 2014 (Local Time) from MUGM Reporting Station
Scattered Clouds Scattered Clouds  
Wind Chill: 79°   Ceiling: Unl
Heat Index: 82°   Visibility: 6mi
Dew Point: 74°   Wind: 9mph
Humidity: 84%   Direction: 340°NNW
Pressure: 29.9"   Gusts: NA
Location:  19.91°N, 75.2°W
Report Text: MUGM 301256Z 34008KT 9999 FEW030 SCT280 26/23 A2990 RMK SLP126 T02610233
Loading
Personal Weather Stations






























Interactive Weather Map
Tropical Storm Tracking
New forecast layout! Learn more

10-Day Weather Forecast

Advertisements
Track Severe Weather on mobile